sensor_id;sensor_type;location;lat;lon;timestamp;temperature;humidity
67196;DHT22;54122;53.538;49.366;2023-02-01T00:00:18;-5.00;72.20
67196;DHT22;54122;53.538;49.366;2023-02-01T00:02:44;-5.10;72.30
67196;DHT22;54122;53.538;49.366;2023-02-01T00:05:10;-5.20;72.60
67196;DHT22;54122;53.538;49.366;2023-02-01T00:07:37;-5.20;72.80
67196;DHT22;54122;53.538;49.366;2023-02-01T00:10:04;-5.30;73.00
67196;DHT22;54122;53.538;49.366;2023-02-01T00:12:31;-5.50;73.20
67196;DHT22;54122;53.538;49.366;2023-02-01T00:14:57;-5.50;74.50
67196;DHT22;54122;53.538;49.366;2023-02-01T00:17:24;-5.60;73.60
67196;DHT22;54122;53.538;49.366;2023-02-01T00:19:50;-5.70;73.60
67196;DHT22;54122;53.538;49.366;2023-02-01T00:22:16;-5.70;73.90
67196;DHT22;54122;53.538;49.366;2023-02-01T00:24:42;-5.80;74.10
67196;DHT22;54122;53.538;49.366;2023-02-01T00:27:09;-5.80;74.20
67196;DHT22;54122;53.538;49.366;2023-02-01T00:29:35;-5.90;74.40
67196;DHT22;54122;53.538;49.366;2023-02-01T00:32:01;-5.90;74.50
67196;DHT22;54122;53.538;49.366;2023-02-01T00:34:27;-5.90;74.40
67196;DHT22;54122;53.538;49.366;2023-02-01T00:36:53;-6.00;74.50
67196;DHT22;54122;53.538;49.366;2023-02-01T00:39:20;-6.00;74.80
67196;DHT22;54122;53.538;49.366;2023-02-01T00:41:46;-6.00;74.90
67196;DHT22;54122;53.538;49.366;2023-02-01T00:44:12;-6.00;74.90
67196;DHT22;54122;53.538;49.366;2023-02-01T00:46:38;-5.90;74.90
67196;DHT22;54122;53.538;49.366;2023-02-01T00:49:05;-5.90;74.90
67196;DHT22;54122;53.538;49.366;2023-02-01T00:51:33;-5.90;74.90
67196;DHT22;54122;53.538;49.366;2023-02-01T00:53:59;-5.90;74.80
67196;DHT22;54122;53.538;49.366;2023-02-01T00:56:25;-5.90;74.70
67196;DHT22;54122;53.538;49.366;2023-02-01T00:58:53;-5.90;74.80
67196;DHT22;54122;53.538;49.366;2023-02-01T01:01:26;-5.90;74.80
67196;DHT22;54122;53.538;49.366;2023-02-01T01:03:58;-5.90;74.90
67196;DHT22;54122;53.538;49.366;2023-02-01T01:06:27;-5.90;74.90
67196;DHT22;54122;53.538;49.366;2023-02-01T01:08:55;-6.00;75.00
67196;DHT22;54122;53.538;49.366;2023-02-01T01:11:24;-6.00;75.00
67196;DHT22;54122;53.538;49.366;2023-02-01T01:13:52;-6.10;75.10
67196;DHT22;54122;53.538;49.366;2023-02-01T01:16:20;-6.10;75.30
67196;DHT22;54122;53.538;49.366;2023-02-01T01:18:47;-6.20;75.40
67196;DHT22;54122;53.538;49.366;2023-02-01T01:21:15;-6.20;75.40
67196;DHT22;54122;53.538;49.366;2023-02-01T01:23:41;-6.30;75.50
67196;DHT22;54122;53.538;49.366;2023-02-01T01:26:10;-6.30;75.50
67196;DHT22;54122;53.538;49.366;2023-02-01T01:28:38;-6.40;75.60
67196;DHT22;54122;53.538;49.366;2023-02-01T01:31:08;-6.50;75.70
67196;DHT22;54122;53.538;49.366;2023-02-01T01:33:35;-6.50;75.90
67196;DHT22;54122;53.538;49.366;2023-02-01T01:36:01;-6.50;76.00
67196;DHT22;54122;53.538;49.366;2023-02-01T01:38:28;-6.60;76.00
67196;DHT22;54122;53.538;49.366;2023-02-01T01:40:54;-6.60;76.00
67196;DHT22;54122;53.538;49.366;2023-02-01T01:43:21;-6.70;76.30
67196;DHT22;54122;53.538;49.366;2023-02-01T01:45:49;-6.80;76.30
67196;DHT22;54122;53.538;49.366;2023-02-01T01:48:22;-6.80;76.20
67196;DHT22;54122;53.538;49.366;2023-02-01T01:50:59;-6.80;76.50
67196;DHT22;54122;53.538;49.366;2023-02-01T01:53:32;-6.90;76.50
67196;DHT22;54122;53.538;49.366;2023-02-01T01:55:59;-7.00;76.80
67196;DHT22;54122;53.538;49.366;2023-02-01T01:58:28;-7.00;76.90
67196;DHT22;54122;53.538;49.366;2023-02-01T02:00:55;-7.10;77.10
67196;DHT22;54122;53.538;49.366;2023-02-01T02:03:32;-7.10;77.20
67196;DHT22;54122;53.538;49.366;2023-02-01T02:06:01;-7.10;77.20
67196;DHT22;54122;53.538;49.366;2023-02-01T02:08:28;-7.20;77.30
67196;DHT22;54122;53.538;49.366;2023-02-01T02:10:54;-7.20;77.40
67196;DHT22;54122;53.538;49.366;2023-02-01T02:13:36;-7.30;77.50
67196;DHT22;54122;53.538;49.366;2023-02-01T02:25:01;-7.40;77.80
67196;DHT22;54122;53.538;49.366;2023-02-01T02:28:11;-7.40;77.80
67196;DHT22;54122;53.538;49.366;2023-02-01T02:39:10;-7.90;78.00
67196;DHT22;54122;53.538;49.366;2023-02-01T02:42:00;-7.90;78.40
67196;DHT22;54122;53.538;49.366;2023-02-01T02:44:57;-8.00;78.60
67196;DHT22;54122;53.538;49.366;2023-02-01T02:47:54;-8.00;78.80
67196;DHT22;54122;53.538;49.366;2023-02-01T02:53:15;-8.10;78.60
67196;DHT22;54122;53.538;49.366;2023-02-01T02:56:06;-8.30;78.70
67196;DHT22;54122;53.538;49.366;2023-02-01T02:58:52;-8.40;79.00
67196;DHT22;54122;53.538;49.366;2023-02-01T03:01:38;-8.50;79.30
67196;DHT22;54122;53.538;49.366;2023-02-01T03:04:23;-8.60;79.40
67196;DHT22;54122;53.538;49.366;2023-02-01T03:06:52;-8.60;79.70
67196;DHT22;54122;53.538;49.366;2023-02-01T03:11:50;-8.70;79.70
67196;DHT22;54122;53.538;49.366;2023-02-01T03:14:37;-8.80;79.80
67196;DHT22;54122;53.538;49.366;2023-02-01T03:17:22;-8.80;80.10
67196;DHT22;54122;53.538;49.366;2023-02-01T03:19:52;-8.80;80.40
67196;DHT22;54122;53.538;49.366;2023-02-01T03:22:24;-8.80;80.40
67196;DHT22;54122;53.538;49.366;2023-02-01T03:25:01;-8.80;80.60
67196;DHT22;54122;53.538;49.366;2023-02-01T03:32:34;-8.90;80.60
67196;DHT22;54122;53.538;49.366;2023-02-01T03:38:12;-8.90;80.90
67196;DHT22;54122;53.538;49.366;2023-02-01T03:40:41;-8.90;81.00
67196;DHT22;54122;53.538;49.366;2023-02-01T03:43:14;-8.90;81.10
67196;DHT22;54122;53.538;49.366;2023-02-01T03:45:46;-8.90;81.20
67196;DHT22;54122;53.538;49.366;2023-02-01T03:48:14;-8.90;81.30
67196;DHT22;54122;53.538;49.366;2023-02-01T03:50:49;-8.90;81.30
67196;DHT22;54122;53.538;49.366;2023-02-01T03:53:21;-8.80;81.20
67196;DHT22;54122;53.538;49.366;2023-02-01T03:55:49;-8.80;81.50
67196;DHT22;54122;53.538;49.366;2023-02-01T03:58:20;-8.90;81.40
67196;DHT22;54122;53.538;49.366;2023-02-01T04:00:53;-8.80;81.50
67196;DHT22;54122;53.538;49.366;2023-02-01T04:03:19;-8.80;81.40
67196;DHT22;54122;53.538;49.366;2023-02-01T04:05:45;-8.80;81.50
67196;DHT22;54122;53.538;49.366;2023-02-01T04:08:11;-8.80;81.60
67196;DHT22;54122;53.538;49.366;2023-02-01T04:10:37;-8.80;81.60
67196;DHT22;54122;53.538;49.366;2023-02-01T04:13:04;-8.80;81.60
67196;DHT22;54122;53.538;49.366;2023-02-01T04:15:31;-8.70;81.50
67196;DHT22;54122;53.538;49.366;2023-02-01T04:17:57;-8.70;81.50
67196;DHT22;54122;53.538;49.366;2023-02-01T04:20:23;-8.70;81.40
67196;DHT22;54122;53.538;49.366;2023-02-01T04:22:50;-8.60;81.50
67196;DHT22;54122;53.538;49.366;2023-02-01T04:25:16;-8.70;81.40
67196;DHT22;54122;53.538;49.366;2023-02-01T04:27:43;-8.60;81.50
67196;DHT22;54122;53.538;49.366;2023-02-01T04:30:11;-8.60;81.40
67196;DHT22;54122;53.538;49.366;2023-02-01T04:32:38;-8.60;81.30
67196;DHT22;54122;53.538;49.366;2023-02-01T04:35:05;-8.60;81.30
67196;DHT22;54122;53.538;49.366;2023-02-01T04:37:32;-8.70;81.30
67196;DHT22;54122;53.538;49.366;2023-02-01T04:39:58;-8.70;81.40
67196;DHT22;54122;53.538;49.366;2023-02-01T04:42:25;-8.60;81.50
67196;DHT22;54122;53.538;49.366;2023-02-01T04:44:51;-8.60;81.60
67196;DHT22;54122;53.538;49.366;2023-02-01T04:47:17;-8.60;81.60
67196;DHT22;54122;53.538;49.366;2023-02-01T04:49:43;-8.50;81.60
67196;DHT22;54122;53.538;49.366;2023-02-01T04:52:10;-8.40;81.50
67196;DHT22;54122;53.538;49.366;2023-02-01T04:54:37;-8.40;81.40
67196;DHT22;54122;53.538;49.366;2023-02-01T04:57:03;-8.30;81.40
67196;DHT22;54122;53.538;49.366;2023-02-01T04:59:30;-8.20;81.50
67196;DHT22;54122;53.538;49.366;2023-02-01T05:01:56;-8.10;81.40
67196;DHT22;54122;53.538;49.366;2023-02-01T05:04:22;-8.00;81.10
67196;DHT22;54122;53.538;49.366;2023-02-01T05:06:48;-7.90;80.90
67196;DHT22;54122;53.538;49.366;2023-02-01T05:09:14;-7.80;80.60
67196;DHT22;54122;53.538;49.366;2023-02-01T05:11:40;-7.60;80.40
67196;DHT22;54122;53.538;49.366;2023-02-01T05:14:25;-7.50;80.00
67196;DHT22;54122;53.538;49.366;2023-02-01T05:16:51;-7.40;79.50
67196;DHT22;54122;53.538;49.366;2023-02-01T05:19:18;-7.30;79.30
67196;DHT22;54122;53.538;49.366;2023-02-01T05:21:44;-7.20;79.10
67196;DHT22;54122;53.538;49.366;2023-02-01T05:24:10;-7.10;78.90
67196;DHT22;54122;53.538;49.366;2023-02-01T05:26:40;-7.10;78.60
67196;DHT22;54122;53.538;49.366;2023-02-01T05:29:07;-7.00;78.40
67196;DHT22;54122;53.538;49.366;2023-02-01T05:31:34;-7.00;78.40
67196;DHT22;54122;53.538;49.366;2023-02-01T05:34:00;-6.90;78.40
67196;DHT22;54122;53.538;49.366;2023-02-01T05:36:27;-6.80;78.30
67196;DHT22;54122;53.538;49.366;2023-02-01T05:38:53;-6.60;78.00
67196;DHT22;54122;53.538;49.366;2023-02-01T05:41:19;-6.40;77.60
67196;DHT22;54122;53.538;49.366;2023-02-01T05:43:45;-6.10;78.20
67196;DHT22;54122;53.538;49.366;2023-02-01T05:46:12;-5.50;77.90
67196;DHT22;54122;53.538;49.366;2023-02-01T05:48:42;-4.90;76.30
67196;DHT22;54122;53.538;49.366;2023-02-01T05:51:09;-4.70;74.20
67196;DHT22;54122;53.538;49.366;2023-02-01T05:53:36;-4.70;73.40
67196;DHT22;54122;53.538;49.366;2023-02-01T05:56:02;-4.60;73.20
67196;DHT22;54122;53.538;49.366;2023-02-01T05:58:29;-4.40;72.60
67196;DHT22;54122;53.538;49.366;2023-02-01T06:00:56;-4.00;73.00
67196;DHT22;54122;53.538;49.366;2023-02-01T06:03:24;-3.40;72.10
67196;DHT22;54122;53.538;49.366;2023-02-01T06:05:50;-2.80;70.40
67196;DHT22;54122;53.538;49.366;2023-02-01T06:08:16;-2.10;69.10
67196;DHT22;54122;53.538;49.366;2023-02-01T06:10:43;-1.90;65.70
67196;DHT22;54122;53.538;49.366;2023-02-01T06:13:09;-2.10;64.30
67196;DHT22;54122;53.538;49.366;2023-02-01T06:15:35;-2.40;64.20
67196;DHT22;54122;53.538;49.366;2023-02-01T06:18:04;-2.60;64.60
67196;DHT22;54122;53.538;49.366;2023-02-01T06:20:30;-2.80;64.60
67196;DHT22;54122;53.538;49.366;2023-02-01T06:22:56;-2.90;64.70
67196;DHT22;54122;53.538;49.366;2023-02-01T06:25:22;-3.00;66.00
67196;DHT22;54122;53.538;49.366;2023-02-01T06:27:48;-2.80;64.50
67196;DHT22;54122;53.538;49.366;2023-02-01T06:30:15;-2.70;64.00
67196;DHT22;54122;53.538;49.366;2023-02-01T06:32:41;-2.60;63.30
67196;DHT22;54122;53.538;49.366;2023-02-01T06:35:08;-2.40;63.00
67196;DHT22;54122;53.538;49.366;2023-02-01T06:37:37;-2.40;62.70
67196;DHT22;54122;53.538;49.366;2023-02-01T06:40:04;-2.20;62.50
67196;DHT22;54122;53.538;49.366;2023-02-01T06:42:30;-2.10;62.00
67196;DHT22;54122;53.538;49.366;2023-02-01T06:45:03;-2.00;61.70
67196;DHT22;54122;53.538;49.366;2023-02-01T06:47:29;-1.70;61.70
67196;DHT22;54122;53.538;49.366;2023-02-01T06:49:55;-1.50;60.50
67196;DHT22;54122;53.538;49.366;2023-02-01T06:52:21;-1.20;60.00
67196;DHT22;54122;53.538;49.366;2023-02-01T06:54:47;-0.80;59.10
67196;DHT22;54122;53.538;49.366;2023-02-01T06:57:14;-0.50;58.40
67196;DHT22;54122;53.538;49.366;2023-02-01T06:59:40;-0.20;58.10
67196;DHT22;54122;53.538;49.366;2023-02-01T07:02:12;0.20;57.10
67196;DHT22;54122;53.538;49.366;2023-02-01T07:04:38;0.30;56.10
67196;DHT22;54122;53.538;49.366;2023-02-01T07:07:04;0.00;55.30
67196;DHT22;54122;53.538;49.366;2023-02-01T07:09:31;-0.20;55.20
67196;DHT22;54122;53.538;49.366;2023-02-01T07:11:57;-0.40;55.10
67196;DHT22;54122;53.538;49.366;2023-02-01T07:14:23;-0.30;55.70
67196;DHT22;54122;53.538;49.366;2023-02-01T07:16:49;-0.10;56.60
67196;DHT22;54122;53.538;49.366;2023-02-01T07:19:16;0.20;54.30
67196;DHT22;54122;53.538;49.366;2023-02-01T07:21:42;0.50;53.70
67196;DHT22;54122;53.538;49.366;2023-02-01T07:24:08;0.80;52.30
67196;DHT22;54122;53.538;49.366;2023-02-01T07:26:35;0.90;51.70
67196;DHT22;54122;53.538;49.366;2023-02-01T07:29:01;1.10;51.40
67196;DHT22;54122;53.538;49.366;2023-02-01T07:31:27;1.30;50.90
67196;DHT22;54122;53.538;49.366;2023-02-01T07:33:54;1.40;50.70
67196;DHT22;54122;53.538;49.366;2023-02-01T07:36:22;1.60;49.70
67196;DHT22;54122;53.538;49.366;2023-02-01T07:38:48;1.90;50.90
67196;DHT22;54122;53.538;49.366;2023-02-01T07:41:14;2.10;48.60
67196;DHT22;54122;53.538;49.366;2023-02-01T07:43:41;2.30;48.50
67196;DHT22;54122;53.538;49.366;2023-02-01T07:46:08;2.40;47.70
67196;DHT22;54122;53.538;49.366;2023-02-01T07:48:35;2.40;47.60
67196;DHT22;54122;53.538;49.366;2023-02-01T07:51:09;2.30;47.00
67196;DHT22;54122;53.538;49.366;2023-02-01T07:53:36;2.20;47.50
67196;DHT22;54122;53.538;49.366;2023-02-01T07:56:03;2.10;47.30
67196;DHT22;54122;53.538;49.366;2023-02-01T07:58:30;2.10;47.60
67196;DHT22;54122;53.538;49.366;2023-02-01T08:00:56;2.10;47.80
67196;DHT22;54122;53.538;49.366;2023-02-01T08:03:40;2.10;47.30
67196;DHT22;54122;53.538;49.366;2023-02-01T08:06:07;2.00;47.70
67196;DHT22;54122;53.538;49.366;2023-02-01T08:08:34;2.00;47.40
67196;DHT22;54122;53.538;49.366;2023-02-01T08:11:01;2.20;47.00
67196;DHT22;54122;53.538;49.366;2023-02-01T08:13:28;2.20;46.40
67196;DHT22;54122;53.538;49.366;2023-02-01T08:15:59;2.20;46.50
67196;DHT22;54122;53.538;49.366;2023-02-01T08:18:26;2.40;46.40
67196;DHT22;54122;53.538;49.366;2023-02-01T08:20:52;2.40;45.60
67196;DHT22;54122;53.538;49.366;2023-02-01T08:23:19;2.30;45.50
67196;DHT22;54122;53.538;49.366;2023-02-01T08:25:46;2.20;45.60
67196;DHT22;54122;53.538;49.366;2023-02-01T08:28:12;2.10;45.70
67196;DHT22;54122;53.538;49.366;2023-02-01T08:30:40;2.20;45.80
67196;DHT22;54122;53.538;49.366;2023-02-01T08:33:08;2.30;46.20
67196;DHT22;54122;53.538;49.366;2023-02-01T08:35:35;2.70;45.70
67196;DHT22;54122;53.538;49.366;2023-02-01T08:38:02;2.80;44.90
67196;DHT22;54122;53.538;49.366;2023-02-01T08:40:28;3.00;44.40
67196;DHT22;54122;53.538;49.366;2023-02-01T08:42:55;2.80;44.10
67196;DHT22;54122;53.538;49.366;2023-02-01T08:45:24;2.70;44.10
67196;DHT22;54122;53.538;49.366;2023-02-01T08:47:52;2.50;44.20
67196;DHT22;54122;53.538;49.366;2023-02-01T08:50:20;2.50;44.60
67196;DHT22;54122;53.538;49.366;2023-02-01T08:52:46;2.60;44.80
67196;DHT22;54122;53.538;49.366;2023-02-01T08:55:13;2.70;44.70
67196;DHT22;54122;53.538;49.366;2023-02-01T08:57:40;2.80;44.30
67196;DHT22;54122;53.538;49.366;2023-02-01T09:00:17;2.60;44.20
67196;DHT22;54122;53.538;49.366;2023-02-01T09:02:43;2.50;43.90
67196;DHT22;54122;53.538;49.366;2023-02-01T09:05:10;2.40;44.00
67196;DHT22;54122;53.538;49.366;2023-02-01T09:07:37;2.30;44.40
67196;DHT22;54122;53.538;49.366;2023-02-01T09:10:03;2.30;44.80
67196;DHT22;54122;53.538;49.366;2023-02-01T09:12:32;2.20;44.60
67196;DHT22;54122;53.538;49.366;2023-02-01T09:14:59;2.00;45.00
67196;DHT22;54122;53.538;49.366;2023-02-01T09:17:26;1.80;45.10
67196;DHT22;54122;53.538;49.366;2023-02-01T09:19:52;1.70;45.70
67196;DHT22;54122;53.538;49.366;2023-02-01T09:22:19;1.60;46.40
67196;DHT22;54122;53.538;49.366;2023-02-01T09:24:45;1.60;46.80
67196;DHT22;54122;53.538;49.366;2023-02-01T09:27:11;1.70;47.00
67196;DHT22;54122;53.538;49.366;2023-02-01T09:29:38;1.80;46.70
67196;DHT22;54122;53.538;49.366;2023-02-01T09:32:04;1.80;46.50
67196;DHT22;54122;53.538;49.366;2023-02-01T09:34:33;1.80;46.40
67196;DHT22;54122;53.538;49.366;2023-02-01T09:36:59;1.80;46.50
67196;DHT22;54122;53.538;49.366;2023-02-01T09:39:25;1.80;46.40
67196;DHT22;54122;53.538;49.366;2023-02-01T09:45:16;1.70;46.10
67196;DHT22;54122;53.538;49.366;2023-02-01T09:47:49;1.80;45.90
67196;DHT22;54122;53.538;49.366;2023-02-01T09:50:19;1.80;45.90
67196;DHT22;54122;53.538;49.366;2023-02-01T09:52:57;1.90;46.20
67196;DHT22;54122;53.538;49.366;2023-02-01T09:55:54;1.90;46.10
67196;DHT22;54122;53.538;49.366;2023-02-01T09:58:54;1.80;46.00
67196;DHT22;54122;53.538;49.366;2023-02-01T10:01:20;1.80;46.20
67196;DHT22;54122;53.538;49.366;2023-02-01T10:03:49;1.70;45.80
67196;DHT22;54122;53.538;49.366;2023-02-01T10:09:09;1.70;47.60
67196;DHT22;54122;53.538;49.366;2023-02-01T10:22:44;2.10;45.40
67196;DHT22;54122;53.538;49.366;2023-02-01T10:25:45;2.00;45.00
67196;DHT22;54122;53.538;49.366;2023-02-01T10:28:17;1.90;45.10
67196;DHT22;54122;53.538;49.366;2023-02-01T10:30:46;1.80;45.10
67196;DHT22;54122;53.538;49.366;2023-02-01T10:33:25;1.70;45.20
67196;DHT22;54122;53.538;49.366;2023-02-01T10:36:04;1.70;45.40
67196;DHT22;54122;53.538;49.366;2023-02-01T10:38:34;1.60;45.50
67196;DHT22;54122;53.538;49.366;2023-02-01T10:41:16;1.70;45.80
67196;DHT22;54122;53.538;49.366;2023-02-01T10:43:45;1.70;45.70
67196;DHT22;54122;53.538;49.366;2023-02-01T10:46:14;1.60;45.50
67196;DHT22;54122;53.538;49.366;2023-02-01T10:48:40;1.70;45.80
67196;DHT22;54122;53.538;49.366;2023-02-01T10:51:24;1.70;45.60
67196;DHT22;54122;53.538;49.366;2023-02-01T10:54:02;1.80;45.70
67196;DHT22;54122;53.538;49.366;2023-02-01T10:56:29;1.80;45.50
67196;DHT22;54122;53.538;49.366;2023-02-01T10:59:02;1.90;45.40
67196;DHT22;54122;53.538;49.366;2023-02-01T11:01:39;1.90;44.70
67196;DHT22;54122;53.538;49.366;2023-02-01T11:04:24;1.90;44.60
67196;DHT22;54122;53.538;49.366;2023-02-01T11:07:24;1.90;44.80
67196;DHT22;54122;53.538;49.366;2023-02-01T11:09:52;2.00;45.00
67196;DHT22;54122;53.538;49.366;2023-02-01T11:12:33;2.10;44.80
67196;DHT22;54122;53.538;49.366;2023-02-01T11:17:33;1.90;44.00
67196;DHT22;54122;53.538;49.366;2023-02-01T11:20:08;1.80;44.20
67196;DHT22;54122;53.538;49.366;2023-02-01T11:22:47;1.80;44.30
67196;DHT22;54122;53.538;49.366;2023-02-01T11:25:16;1.80;44.30
67196;DHT22;54122;53.538;49.366;2023-02-01T11:27:44;1.80;43.60
67196;DHT22;54122;53.538;49.366;2023-02-01T11:30:19;1.60;43.60
67196;DHT22;54122;53.538;49.366;2023-02-01T11:32:50;1.30;43.50
67196;DHT22;54122;53.538;49.366;2023-02-01T11:35:19;1.10;44.20
67196;DHT22;54122;53.538;49.366;2023-02-01T11:37:53;1.00;44.90
67196;DHT22;54122;53.538;49.366;2023-02-01T11:43:08;0.90;45.30
67196;DHT22;54122;53.538;49.366;2023-02-01T11:45:34;0.80;45.50
67196;DHT22;54122;53.538;49.366;2023-02-01T11:48:09;0.70;46.00
67196;DHT22;54122;53.538;49.366;2023-02-01T12:01:43;0.80;46.40
67196;DHT22;54122;53.538;49.366;2023-02-01T12:04:26;0.80;46.20
67196;DHT22;54122;53.538;49.366;2023-02-01T12:07:03;0.80;46.00
67196;DHT22;54122;53.538;49.366;2023-02-01T12:29:11;0.00;46.80
67196;DHT22;54122;53.538;49.366;2023-02-01T12:42:29;-0.30;47.70
67196;DHT22;54122;53.538;49.366;2023-02-01T12:47:55;-0.70;48.20
67196;DHT22;54122;53.538;49.366;2023-02-01T12:50:29;-0.90;48.70
67196;DHT22;54122;53.538;49.366;2023-02-01T12:55:35;-1.30;49.00
67196;DHT22;54122;53.538;49.366;2023-02-01T13:00:46;-1.50;50.00
67196;DHT22;54122;53.538;49.366;2023-02-01T13:03:38;-1.80;50.40
67196;DHT22;54122;53.538;49.366;2023-02-01T13:06:10;-1.90;50.70
67196;DHT22;54122;53.538;49.366;2023-02-01T13:08:47;-2.00;51.00
67196;DHT22;54122;53.538;49.366;2023-02-01T13:11:27;-2.20;51.40
67196;DHT22;54122;53.538;49.366;2023-02-01T13:14:10;-2.20;51.80
67196;DHT22;54122;53.538;49.366;2023-02-01T13:16:48;-2.30;51.60
67196;DHT22;54122;53.538;49.366;2023-02-01T13:22:00;-2.50;52.50
67196;DHT22;54122;53.538;49.366;2023-02-01T13:26:55;-2.70;52.90
67196;DHT22;54122;53.538;49.366;2023-02-01T13:29:23;-2.80;53.30
67196;DHT22;54122;53.538;49.366;2023-02-01T13:35:09;-2.90;54.20
67196;DHT22;54122;53.538;49.366;2023-02-01T13:40:24;-3.10;55.30
67196;DHT22;54122;53.538;49.366;2023-02-01T13:43:06;-3.10;55.50
67196;DHT22;54122;53.538;49.366;2023-02-01T13:45:36;-3.10;55.70
67196;DHT22;54122;53.538;49.366;2023-02-01T13:48:19;-3.10;56.10
67196;DHT22;54122;53.538;49.366;2023-02-01T13:50:54;-3.10;56.10
67196;DHT22;54122;53.538;49.366;2023-02-01T13:53:31;-3.20;56.30
67196;DHT22;54122;53.538;49.366;2023-02-01T13:56:01;-3.30;56.60
67196;DHT22;54122;53.538;49.366;2023-02-01T13:58:39;-3.40;57.00
67196;DHT22;54122;53.538;49.366;2023-02-01T14:01:32;-3.50;57.40
67196;DHT22;54122;53.538;49.366;2023-02-01T14:04:05;-3.50;57.80
67196;DHT22;54122;53.538;49.366;2023-02-01T14:11:50;-3.60;58.50
67196;DHT22;54122;53.538;49.366;2023-02-01T14:19:35;-3.70;58.70
67196;DHT22;54122;53.538;49.366;2023-02-01T14:24:41;-3.80;58.70
67196;DHT22;54122;53.538;49.366;2023-02-01T14:27:24;-3.90;58.80
67196;DHT22;54122;53.538;49.366;2023-02-01T14:30:04;-3.90;58.80
67196;DHT22;54122;53.538;49.366;2023-02-01T14:32:37;-4.00;58.90
67196;DHT22;54122;53.538;49.366;2023-02-01T14:35:27;-4.00;59.00
67196;DHT22;54122;53.538;49.366;2023-02-01T14:37:59;-4.10;59.20
67196;DHT22;54122;53.538;49.366;2023-02-01T14:40:28;-4.20;59.20
67196;DHT22;54122;53.538;49.366;2023-02-01T14:42:55;-4.30;59.40
67196;DHT22;54122;53.538;49.366;2023-02-01T14:59:13;-4.90;60.70
67196;DHT22;54122;53.538;49.366;2023-02-01T15:01:28;-4.90;60.80
67196;DHT22;54122;53.538;49.366;2023-02-01T15:04:15;-5.00;61.00
67196;DHT22;54122;53.538;49.366;2023-02-01T15:09:32;-5.20;61.50
67196;DHT22;54122;53.538;49.366;2023-02-01T15:12:17;-5.20;61.70
67196;DHT22;54122;53.538;49.366;2023-02-01T15:14:48;-5.30;62.80
67196;DHT22;54122;53.538;49.366;2023-02-01T15:17:31;-5.40;61.90
67196;DHT22;54122;53.538;49.366;2023-02-01T15:20:17;-5.60;61.90
67196;DHT22;54122;53.538;49.366;2023-02-01T15:22:56;-5.70;62.20
67196;DHT22;54122;53.538;49.366;2023-02-01T15:25:39;-5.70;62.40
67196;DHT22;54122;53.538;49.366;2023-02-01T15:28:09;-5.80;62.50
67196;DHT22;54122;53.538;49.366;2023-02-01T15:30:36;-5.80;62.70
67196;DHT22;54122;53.538;49.366;2023-02-01T15:35:42;-5.70;63.10
67196;DHT22;54122;53.538;49.366;2023-02-01T15:38:32;-5.70;63.00
67196;DHT22;54122;53.538;49.366;2023-02-01T15:43:26;-5.50;62.50
67196;DHT22;54122;53.538;49.366;2023-02-01T15:45:59;-5.50;62.30
67196;DHT22;54122;53.538;49.366;2023-02-01T15:48:32;-5.50;62.20
67196;DHT22;54122;53.538;49.366;2023-02-01T15:51:00;-5.60;62.30
67196;DHT22;54122;53.538;49.366;2023-02-01T15:53:27;-5.70;62.30
67196;DHT22;54122;53.538;49.366;2023-02-01T15:56:00;-5.70;62.50
67196;DHT22;54122;53.538;49.366;2023-02-01T15:58:27;-5.80;62.50
67196;DHT22;54122;53.538;49.366;2023-02-01T16:00:57;-5.80;62.50
67196;DHT22;54122;53.538;49.366;2023-02-01T16:03:42;-5.70;62.40
67196;DHT22;54122;53.538;49.366;2023-02-01T16:06:32;-5.70;62.30
67196;DHT22;54122;53.538;49.366;2023-02-01T16:09:10;-5.80;62.10
67196;DHT22;54122;53.538;49.366;2023-02-01T16:12:02;-5.90;62.20
67196;DHT22;54122;53.538;49.366;2023-02-01T16:14:29;-5.90;62.40
67196;DHT22;54122;53.538;49.366;2023-02-01T16:16:58;-6.00;62.30
67196;DHT22;54122;53.538;49.366;2023-02-01T16:19:25;-6.00;62.30
67196;DHT22;54122;53.538;49.366;2023-02-01T16:21:54;-6.10;62.40
67196;DHT22;54122;53.538;49.366;2023-02-01T16:24:21;-6.10;62.50
67196;DHT22;54122;53.538;49.366;2023-02-01T16:26:50;-6.10;62.50
67196;DHT22;54122;53.538;49.366;2023-02-01T16:29:16;-6.10;62.50
67196;DHT22;54122;53.538;49.366;2023-02-01T16:31:43;-6.10;62.70
67196;DHT22;54122;53.538;49.366;2023-02-01T16:34:14;-6.00;62.90
67196;DHT22;54122;53.538;49.366;2023-02-01T16:36:43;-6.10;62.80
67196;DHT22;54122;53.538;49.366;2023-02-01T16:39:13;-6.10;63.00
67196;DHT22;54122;53.538;49.366;2023-02-01T16:41:39;-6.00;63.00
67196;DHT22;54122;53.538;49.366;2023-02-01T16:44:06;-6.00;63.00
67196;DHT22;54122;53.538;49.366;2023-02-01T16:46:35;-6.10;63.00
67196;DHT22;54122;53.538;49.366;2023-02-01T16:49:02;-6.20;63.10
67196;DHT22;54122;53.538;49.366;2023-02-01T16:51:30;-6.20;63.40
67196;DHT22;54122;53.538;49.366;2023-02-01T16:54:01;-6.30;63.30
67196;DHT22;54122;53.538;49.366;2023-02-01T16:56:32;-6.40;63.50
67196;DHT22;54122;53.538;49.366;2023-02-01T16:59:00;-6.50;63.60
67196;DHT22;54122;53.538;49.366;2023-02-01T17:01:27;-6.60;63.80
67196;DHT22;54122;53.538;49.366;2023-02-01T17:03:53;-6.60;64.00
67196;DHT22;54122;53.538;49.366;2023-02-01T17:06:22;-6.60;64.20
67196;DHT22;54122;53.538;49.366;2023-02-01T17:08:56;-6.70;64.30
67196;DHT22;54122;53.538;49.366;2023-02-01T17:11:26;-6.80;64.40
67196;DHT22;54122;53.538;49.366;2023-02-01T17:13:53;-6.90;64.60
67196;DHT22;54122;53.538;49.366;2023-02-01T17:16:23;-7.00;65.90
67196;DHT22;54122;53.538;49.366;2023-02-01T17:18:56;-7.10;65.10
67196;DHT22;54122;53.538;49.366;2023-02-01T17:21:25;-7.20;65.20
67196;DHT22;54122;53.538;49.366;2023-02-01T17:23:52;-7.20;65.50
67196;DHT22;54122;53.538;49.366;2023-02-01T17:26:19;-7.30;65.50
67196;DHT22;54122;53.538;49.366;2023-02-01T17:28:45;-7.40;65.50
67196;DHT22;54122;53.538;49.366;2023-02-01T17:31:15;-7.40;65.80
67196;DHT22;54122;53.538;49.366;2023-02-01T17:33:42;-7.40;66.00
67196;DHT22;54122;53.538;49.366;2023-02-01T17:36:14;-7.50;66.00
67196;DHT22;54122;53.538;49.366;2023-02-01T17:38:41;-7.40;66.30
67196;DHT22;54122;53.538;49.366;2023-02-01T17:41:12;-7.50;66.10
67196;DHT22;54122;53.538;49.366;2023-02-01T17:43:39;-7.60;66.20
67196;DHT22;54122;53.538;49.366;2023-02-01T17:46:13;-7.70;66.30
67196;DHT22;54122;53.538;49.366;2023-02-01T17:48:40;-7.70;66.50
67196;DHT22;54122;53.538;49.366;2023-02-01T17:51:17;-7.80;66.60
67196;DHT22;54122;53.538;49.366;2023-02-01T17:53:44;-7.90;66.90
67196;DHT22;54122;53.538;49.366;2023-02-01T17:56:17;-8.00;66.90
67196;DHT22;54122;53.538;49.366;2023-02-01T17:58:44;-8.00;67.10
67196;DHT22;54122;53.538;49.366;2023-02-01T18:01:20;-8.10;67.00
67196;DHT22;54122;53.538;49.366;2023-02-01T18:03:46;-8.20;67.30
67196;DHT22;54122;53.538;49.366;2023-02-01T18:06:18;-8.30;67.30
67196;DHT22;54122;53.538;49.366;2023-02-01T18:08:45;-8.40;67.50